Time;durP1;ratioP1;P1;durP2;ratioP2;P2;SDS_P1;SDS_P2;PMS_P1;PMS_P2;Temp;Humidity;BMP_temperature;BMP_pressure;BME280_temperature;BME280_humidity;BME280_pressure;Samples;Min_cycle;Max_cycle;Signal;HPM_P1;HPM_P2
2021/04/29 00:01:22;;;;;;;25.25;6.97;;;9.60;69.50;;;;;;5046959;28;20039;-81
2021/04/29 00:03:48;;;;;;;11.63;5.53;;;9.50;69.70;;;;;;5030478;28;20458;-80
2021/04/29 00:06:14;;;;;;;15.60;5.53;;;9.40;69.80;;;;;;5048176;28;20021;-80
2021/04/29 00:08:40;;;;;;;9.95;4.90;;;9.40;70.50;;;;;;5046990;28;20021;-81
2021/04/29 00:11:07;;;;;;;10.23;5.38;;;9.40;70.20;;;;;;5046831;28;20021;-80
2021/04/29 00:13:33;;;;;;;12.27;4.70;;;9.30;70.30;;;;;;5048217;28;20021;-81
2021/04/29 00:15:59;;;;;;;13.55;4.07;;;9.30;70.50;;;;;;5046700;28;20029;-81
2021/04/29 00:18:25;;;;;;;6.97;3.78;;;9.20;70.50;;;;;;5046840;28;20032;-80
2021/04/29 00:20:57;;;;;;;6.47;4.10;;;9.20;70.60;;;;;;5029971;28;20399;-81
2021/04/29 00:23:25;;;;;;;8.98;3.70;;;9.20;70.70;;;;;;5047936;28;20075;-82
2021/04/29 00:25:50;;;;;;;11.73;3.92;;;9.20;70.80;;;;;;5046625;28;20534;-81
2021/04/29 00:28:16;;;;;;;8.48;3.45;;;9.20;70.80;;;;;;5030160;28;20033;-81
2021/04/29 00:30:42;;;;;;;6.55;3.33;;;9.20;70.80;;;;;;5046597;28;20025;-81
2021/04/29 00:33:07;;;;;;;6.82;3.03;;;9.20;70.90;;;;;;5046636;28;20039;-80
2021/04/29 00:35:33;;;;;;;5.03;2.78;;;9.20;70.90;;;;;;5047736;28;20029;-81
2021/04/29 00:37:59;;;;;;;5.90;2.92;;;9.20;71.00;;;;;;5046591;28;20033;-80
2021/04/29 00:40:25;;;;;;;5.50;3.35;;;9.20;71.00;;;;;;5046536;28;20033;-81
2021/04/29 00:42:50;;;;;;;6.30;3.33;;;9.20;71.50;;;;;;5047768;28;20033;-80
2021/04/29 00:45:16;;;;;;;7.93;3.50;;;9.20;71.00;;;;;;5029865;28;20049;-81
2021/04/29 00:47:42;;;;;;;11.15;3.45;;;9.20;71.00;;;;;;5029543;28;20053;-81
2021/04/29 00:50:10;;;;;;;5.97;3.28;;;9.20;71.00;;;;;;5046306;28;20379;-81
2021/04/29 00:52:37;;;;;;;6.85;3.40;;;9.10;71.10;;;;;;5046277;28;20075;-81
2021/04/29 00:55:04;;;;;;;4.78;2.75;;;9.10;71.20;;;;;;5046597;28;20625;-81
2021/04/29 00:57:29;;;;;;;7.85;2.95;;;9.00;71.20;;;;;;5046536;28;20098;-80
2021/04/29 00:59:56;;;;;;;6.95;3.22;;;9.00;71.20;;;;;;5047583;28;20479;-81
2021/04/29 01:02:24;;;;;;;5.32;3.55;;;9.00;71.30;;;;;;5013411;28;20041;-81
2021/04/29 01:05:18;;;;;;;5.30;3.00;;;8.90;71.40;;;;;;5047520;28;20025;-82
2021/04/29 01:07:49;;;;;;;8.48;3.65;;;8.90;71.60;;;;;;5047337;28;20044;-80
2021/04/29 01:10:31;;;;;;;6.13;3.90;;;8.90;71.40;;;;;;5049823;28;20075;-80
2021/04/29 01:13:35;;;;;;;7.07;3.78;;;8.90;71.60;;;;;;5050243;28;20025;-80
2021/04/29 01:16:02;;;;;;;6.95;3.28;;;8.90;71.60;;;;;;5012569;28;20165;-81
2021/04/29 01:18:28;;;;;;;5.03;2.90;;;8.80;71.50;;;;;;5026016;28;20052;-81
2021/04/29 01:21:00;;;;;;;6.85;3.10;;;8.80;71.70;;;;;;5033678;28;20063;-82
2021/04/29 01:23:44;;;;;;;10.45;4.20;;;8.80;71.90;;;;;;5050002;28;20021;-81
2021/04/29 01:26:19;;;;;;;5.63;2.63;;;8.70;72.00;;;;;;5049967;28;20032;-81
2021/04/29 01:28:47;;;;;;;5.50;2.75;;;8.70;72.00;;;;;;5049916;28;20025;-80
2021/04/29 01:31:13;;;;;;;8.77;3.22;;;8.60;72.00;;;;;;5051226;28;20025;-80
2021/04/29 01:33:40;;;;;;;10.18;3.15;;;8.60;72.10;;;;;;5049832;28;20025;-81
2021/04/29 01:36:08;;;;;;;11.15;3.95;;;8.60;72.10;;;;;;5051139;28;20341;-82
2021/04/29 01:38:34;;;;;;;9.05;4.43;;;8.60;72.10;;;;;;5049701;28;20025;-80
2021/04/29 01:41:00;;;;;;;8.77;4.13;;;8.60;72.20;;;;;;5033285;28;20032;-80
2021/04/29 01:43:26;;;;;;;6.18;2.88;;;8.50;72.20;;;;;;5049697;28;20029;-80
2021/04/29 01:45:53;;;;;;;6.90;3.17;;;8.50;72.40;;;;;;5032953;28;20539;-80
2021/04/29 01:48:19;;;;;;;7.70;3.47;;;8.50;72.40;;;;;;5032931;28;20040;-80
2021/04/29 01:50:45;;;;;;;8.32;3.50;;;8.40;72.40;;;;;;5032779;28;20033;-80
2021/04/29 01:53:11;;;;;;;12.98;4.03;;;8.40;72.50;;;;;;5033107;28;20051;-81
2021/04/29 01:55:37;;;;;;;7.28;4.10;;;8.40;72.70;;;;;;5032918;28;20388;-80
2021/04/29 01:58:03;;;;;;;9.77;3.45;;;8.30;72.90;;;;;;5016136;28;20427;-81
2021/04/29 02:00:29;;;;;;;8.95;3.60;;;8.30;72.90;;;;;;5049333;28;20079;-81
2021/04/29 02:02:54;;;;;;;6.65;3.15;;;8.30;73.00;;;;;;5049464;28;20049;-81
2021/04/29 02:05:20;;;;;;;5.40;3.20;;;8.30;73.00;;;;;;5049237;28;20029;-81
2021/04/29 02:07:46;;;;;;;7.22;3.10;;;8.30;73.10;;;;;;5049261;28;20059;-80
2021/04/29 02:10:15;;;;;;;5.30;2.90;;;8.30;73.10;;;;;;5032596;28;20029;-81
2021/04/29 02:12:47;;;;;;;6.53;3.60;;;8.20;73.20;;;;;;5033100;28;20082;-81
2021/04/29 02:15:13;;;;;;;6.15;2.80;;;8.20;73.40;;;;;;5050323;28;20115;-80
2021/04/29 02:17:48;;;;;;;6.95;3.25;;;8.20;73.50;;;;;;5016261;28;20500;-81
2021/04/29 02:20:15;;;;;;;5.70;3.22;;;8.20;73.70;;;;;;5048784;28;20025;-81
2021/04/29 02:22:43;;;;;;;5.45;2.67;;;8.20;73.70;;;;;;5031512;28;20028;-80
2021/04/29 02:25:12;;;;;;;6.90;2.85;;;8.20;73.90;;;;;;5049028;28;20108;-81
2021/04/29 02:27:38;;;;;;;6.70;2.80;;;8.20;74.10;;;;;;5048838;28;20025;-81
2021/04/29 02:30:16;;;;;;;7.90;3.10;;;8.20;74.20;;;;;;5032639;28;20040;-82
2021/04/29 02:32:43;;;;;;;4.45;2.33;;;8.20;74.40;;;;;;5032063;28;20055;-82
2021/04/29 02:35:13;;;;;;;7.88;2.90;;;8.20;74.30;;;;;;5048880;28;20029;-82
2021/04/29 02:37:40;;;;;;;7.45;2.90;;;8.30;74.50;;;;;;5048772;28;20139;-82
2021/04/29 02:40:09;;;;;;;6.00;2.70;;;8.30;74.60;;;;;;5048755;28;20531;-81
2021/04/29 02:42:40;;;;;;;5.38;3.03;;;8.30;74.80;;;;;;5048445;28;20095;-81
2021/04/29 02:45:11;;;;;;;7.43;2.90;;;8.30;75.00;;;;;;5049928;28;20036;-82
2021/04/29 02:47:39;;;;;;;5.15;2.38;;;8.30;75.10;;;;;;5048451;28;20045;-82
2021/04/29 02:50:09;;;;;;;7.30;3.00;;;8.40;75.20;;;;;;5049780;28;20357;-82
2021/04/29 02:52:36;;;;;;;5.50;2.38;;;8.40;75.20;;;;;;5048418;28;20033;-82
2021/04/29 02:55:02;;;;;;;10.73;2.65;;;8.50;75.20;;;;;;5050202;28;20422;-81
2021/04/29 02:57:27;;;;;;;5.22;3.15;;;8.50;75.20;;;;;;5048457;28;20108;-82
2021/04/29 02:59:53;;;;;;;13.55;3.45;;;8.50;75.30;;;;;;5015092;28;20167;-82
2021/04/29 03:02:19;;;;;;;7.38;2.90;;;8.50;75.20;;;;;;5048303;28;20048;-81
2021/04/29 03:04:45;;;;;;;9.55;3.35;;;8.50;75.30;;;;;;5031720;28;20032;-81
2021/04/29 03:07:11;;;;;;;5.68;2.95;;;8.50;75.50;;;;;;5031612;28;20033;-82
2021/04/29 03:09:36;;;;;;;5.78;2.88;;;8.40;75.40;;;;;;5048112;28;20164;-82
2021/04/29 03:12:03;;;;;;;4.68;2.50;;;8.40;75.50;;;;;;5048034;28;20046;-82
2021/04/29 03:14:28;;;;;;;5.72;2.97;;;8.40;75.60;;;;;;5031434;28;20036;-82
2021/04/29 03:16:54;;;;;;;5.05;2.88;;;8.40;75.60;;;;;;5031408;28;20028;-82
2021/04/29 03:19:20;;;;;;;6.85;3.13;;;8.30;75.70;;;;;;5031297;28;20067;-82
2021/04/29 03:21:45;;;;;;;9.45;3.63;;;8.30;75.90;;;;;;5031271;28;20025;-82
2021/04/29 03:24:11;;;;;;;6.20;2.80;;;8.20;76.10;;;;;;5047916;28;20074;-83
2021/04/29 03:26:37;;;;;;;5.30;2.72;;;8.20;76.40;;;;;;5031263;28;20051;-81
2021/04/29 03:29:02;;;;;;;6.95;3.17;;;8.20;76.50;;;;;;5047857;28;20357;-83
2021/04/29 03:31:29;;;;;;;7.15;3.15;;;8.20;76.60;;;;;;5031377;28;20112;-81
2021/04/29 03:33:55;;;;;;;12.82;3.40;;;8.20;76.70;;;;;;5047925;28;20650;-82
2021/04/29 03:36:20;;;;;;;7.05;3.42;;;8.20;76.80;;;;;;5047509;28;20123;-82
2021/04/29 03:38:46;;;;;;;5.95;3.55;;;8.20;76.80;;;;;;5031177;28;20040;-82
2021/04/29 03:41:12;;;;;;;6.90;2.95;;;8.20;76.80;;;;;;5047684;28;20034;-82
2021/04/29 03:43:37;;;;;;;7.50;3.67;;;8.20;76.90;;;;;;5030970;28;20025;-83
2021/04/29 03:46:03;;;;;;;8.18;3.35;;;8.20;77.00;;;;;;5030508;28;20132;-80
2021/04/29 03:48:29;;;;;;;8.10;4.15;;;8.20;77.00;;;;;;5047458;28;20479;-82
2021/04/29 03:50:55;;;;;;;6.55;3.28;;;8.20;77.00;;;;;;5014248;28;20029;-80
2021/04/29 03:53:20;;;;;;;6.13;3.72;;;8.20;77.10;;;;;;5047621;28;20029;-80
2021/04/29 03:55:46;;;;;;;8.15;3.28;;;8.10;77.00;;;;;;5047263;28;20078;-80
2021/04/29 03:58:11;;;;;;;6.13;3.08;;;8.00;77.10;;;;;;5030546;28;20120;-81
2021/04/29 04:00:37;;;;;;;5.43;3.40;;;7.90;77.10;;;;;;5030502;28;20029;-80
2021/04/29 04:03:03;;;;;;;7.97;4.00;;;7.80;77.50;;;;;;5030441;28;20479;-80
2021/04/29 04:05:29;;;;;;;6.35;3.60;;;7.70;77.80;;;;;;5030642;28;20041;-81
2021/04/29 04:07:54;;;;;;;7.97;3.38;;;7.60;78.10;;;;;;5048352;28;20487;-80
2021/04/29 04:10:20;;;;;;;6.78;3.55;;;7.50;78.30;;;;;;5046864;28;20102;-80
2021/04/29 04:12:46;;;;;;;4.95;3.10;;;7.40;78.40;;;;;;5013706;28;20032;-80
2021/04/29 04:15:11;;;;;;;6.03;3.65;;;7.30;78.50;;;;;;5046924;28;20486;-81
2021/04/29 04:17:37;;;;;;;8.27;3.55;;;7.20;78.60;;;;;;5046569;28;20033;-82
2021/04/29 04:20:03;;;;;;;14.52;4.00;;;7.20;78.80;;;;;;5030280;28;20163;-81
2021/04/29 04:22:29;;;;;;;14.43;4.13;;;7.10;79.00;;;;;;5030163;28;20079;-81
2021/04/29 04:24:55;;;;;;;10.90;4.38;;;7.00;79.20;;;;;;5030100;28;20025;-80
2021/04/29 04:27:21;;;;;;;7.45;4.32;;;7.00;79.70;;;;;;5029999;28;20037;-81
2021/04/29 04:29:46;;;;;;;9.25;4.03;;;6.90;79.60;;;;;;5047971;28;20388;-80
2021/04/29 04:32:12;;;;;;;10.90;3.58;;;6.90;79.70;;;;;;5029961;28;20029;-81
2021/04/29 04:34:38;;;;;;;11.52;4.28;;;6.90;79.90;;;;;;5030022;28;20029;-80
2021/04/29 04:37:03;;;;;;;5.53;3.55;;;6.90;79.90;;;;;;5013348;28;20062;-80
2021/04/29 04:39:29;;;;;;;6.75;3.80;;;6.80;79.90;;;;;;5029794;28;20031;-83
2021/04/29 04:41:55;;;;;;;8.88;3.72;;;6.70;80.60;;;;;;5029750;28;20083;-82
2021/04/29 04:44:20;;;;;;;10.77;4.15;;;6.70;80.30;;;;;;5029696;28;20384;-81
2021/04/29 04:46:46;;;;;;;6.28;3.47;;;6.70;80.50;;;;;;5046189;28;20091;-80
2021/04/29 04:49:12;;;;;;;6.72;3.75;;;6.60;80.70;;;;;;5046360;28;20365;-80
2021/04/29 04:51:38;;;;;;;9.80;4.20;;;6.60;80.90;;;;;;5029800;28;20094;-81
2021/04/29 04:54:04;;;;;;;5.38;3.42;;;6.50;81.00;;;;;;5029633;28;20115;-81
2021/04/29 04:56:30;;;;;;;8.38;4.57;;;6.50;81.10;;;;;;5029736;28;20029;-81
2021/04/29 04:58:55;;;;;;;11.43;4.35;;;6.50;81.30;;;;;;5046639;28;20090;-81
2021/04/29 05:01:21;;;;;;;8.80;4.50;;;6.40;81.50;;;;;;5029616;28;20029;-81
2021/04/29 05:03:48;;;;;;;11.85;4.32;;;6.40;81.80;;;;;;5029602;28;20044;-82
2021/04/29 05:06:15;;;;;;;7.05;4.20;;;6.50;82.00;;;;;;5029795;28;20022;-81
2021/04/29 05:08:41;;;;;;;10.57;4.22;;;6.50;82.00;;;;;;5046169;28;20090;-82
2021/04/29 05:11:07;;;;;;;11.60;4.78;;;6.50;82.00;;;;;;5046185;28;20025;-81
2021/04/29 05:13:32;;;;;;;8.77;4.47;;;6.50;82.10;;;;;;5046333;28;20498;-79
2021/04/29 05:15:58;;;;;;;9.50;4.68;;;6.50;82.20;;;;;;5029731;28;20128;-79
2021/04/29 05:18:27;;;;;;;8.80;4.28;;;6.50;82.30;;;;;;5029448;28;20033;-80
2021/04/29 05:20:53;;;;;;;12.38;4.50;;;6.50;82.40;;;;;;5047348;28;20471;-81
2021/04/29 05:23:19;;;;;;;7.82;5.07;;;6.50;82.50;;;;;;5045990;28;20033;-81
2021/04/29 05:25:44;;;;;;;8.63;5.13;;;6.50;82.60;;;;;;5029375;28;20039;-81
2021/04/29 05:28:10;;;;;;;8.38;4.45;;;6.40;82.50;;;;;;5028953;28;20137;-81
2021/04/29 05:30:36;;;;;;;10.40;4.93;;;6.40;82.60;;;;;;5046899;28;20032;-76
2021/04/29 05:33:02;;;;;;;6.82;4.30;;;6.40;82.90;;;;;;5045896;28;20070;-82
2021/04/29 05:35:28;;;;;;;7.45;4.13;;;6.30;83.10;;;;;;5029174;28;20036;-81
2021/04/29 05:37:54;;;;;;;6.15;4.57;;;6.30;83.20;;;;;;5029090;28;20031;-81
2021/04/29 05:40:20;;;;;;;8.88;4.65;;;6.30;83.30;;;;;;5047120;28;20120;-81
2021/04/29 05:42:45;;;;;;;10.25;4.25;;;6.30;83.40;;;;;;5045728;28;20476;-81
2021/04/29 05:45:12;;;;;;;7.78;4.22;;;6.30;83.50;;;;;;5029510;28;20037;-83
2021/04/29 05:47:38;;;;;;;10.23;4.20;;;6.40;83.60;;;;;;5029161;28;20091;-82
2021/04/29 05:50:05;;;;;;;8.13;4.70;;;6.40;83.70;;;;;;5045969;28;20049;-82
2021/04/29 05:52:31;;;;;;;11.73;5.15;;;6.40;83.70;;;;;;5045433;28;20056;-82
2021/04/29 05:54:57;;;;;;;9.68;4.47;;;6.50;83.90;;;;;;5029006;28;20029;-81
2021/04/29 05:57:23;;;;;;;6.65;4.20;;;6.50;83.90;;;;;;5031192;28;20036;-82
2021/04/29 05:59:50;;;;;;;12.13;5.75;;;6.60;84.00;;;;;;5049399;28;20056;-82
2021/04/29 06:02:15;;;;;;;12.68;4.13;;;6.60;84.00;;;;;;5049158;28;20025;-82
2021/04/29 06:04:41;;;;;;;16.65;5.15;;;6.70;84.00;;;;;;5050606;28;20021;-81
2021/04/29 06:07:10;;;;;;;10.68;5.18;;;6.80;84.10;;;;;;5049300;28;20032;-81
2021/04/29 06:09:36;;;;;;;11.73;4.45;;;6.90;84.20;;;;;;5048921;28;20082;-81
2021/04/29 06:12:02;;;;;;;14.00;4.78;;;6.90;84.10;;;;;;5032044;28;20033;-78
2021/04/29 06:14:28;;;;;;;9.55;4.18;;;7.00;84.10;;;;;;5050237;28;20029;-81
2021/04/29 06:16:54;;;;;;;10.30;5.15;;;7.10;84.20;;;;;;5048629;28;20025;-82
2021/04/29 06:19:20;;;;;;;10.88;4.38;;;7.10;84.20;;;;;;5050248;28;20013;-82
2021/04/29 06:21:46;;;;;;;31.65;4.88;;;7.30;84.60;;;;;;5049349;28;20380;-81
2021/04/29 06:24:12;;;;;;;10.48;4.43;;;7.50;84.50;;;;;;5032333;28;20049;-81
2021/04/29 06:26:38;;;;;;;18.10;4.85;;;7.70;83.60;;;;;;5049051;28;20373;-81
2021/04/29 06:29:04;;;;;;;15.98;4.95;;;7.70;83.60;;;;;;5048802;28;20025;-81
2021/04/29 06:31:30;;;;;;;7.07;3.70;;;7.80;82.70;;;;;;5048573;28;20052;-81
2021/04/29 06:33:56;;;;;;;18.98;5.00;;;7.70;82.60;;;;;;5048185;28;20049;-80
2021/04/29 06:36:21;;;;;;;7.38;4.50;;;7.70;82.60;;;;;;5031648;28;20026;-82
2021/04/29 06:38:47;;;;;;;11.65;4.38;;;7.70;82.70;;;;;;5015325;28;20029;-82
2021/04/29 06:41:13;;;;;;;8.18;4.05;;;7.70;82.70;;;;;;5048468;28;20110;-84
2021/04/29 06:43:38;;;;;;;15.90;4.80;;;7.80;82.70;;;;;;5049739;28;20053;-81
2021/04/29 06:46:04;;;;;;;6.53;3.45;;;7.80;82.80;;;;;;5014944;28;20263;-82
2021/04/29 06:48:30;;;;;;;7.15;4.05;;;7.90;82.70;;;;;;5031846;28;20161;-81
2021/04/29 06:50:55;;;;;;;25.63;5.75;;;8.00;82.60;;;;;;5015136;28;20029;-83
2021/04/29 06:53:21;;;;;;;14.43;3.42;;;8.00;82.40;;;;;;5048163;28;20407;-82
2021/04/29 06:55:48;;;;;;;16.23;4.03;;;8.10;82.20;;;;;;5048370;28;20124;-82
2021/04/29 06:58:14;;;;;;;14.70;5.55;;;8.10;82.10;;;;;;5032802;28;20051;-81
2021/04/29 07:00:40;;;;;;;9.88;3.58;;;8.20;82.10;;;;;;5049642;28;20029;-83
2021/04/29 07:03:05;;;;;;;12.65;3.50;;;8.30;81.90;;;;;;5049337;28;20123;-82
2021/04/29 07:05:31;;;;;;;16.73;4.28;;;8.30;81.70;;;;;;5015225;28;20029;-81
2021/04/29 07:07:57;;;;;;;14.52;4.10;;;8.30;81.90;;;;;;5047824;28;20063;-82
2021/04/29 07:10:24;;;;;;;12.55;3.67;;;8.40;82.20;;;;;;5047355;28;20104;-83
2021/04/29 07:12:50;;;;;;;16.08;3.50;;;8.50;82.30;;;;;;5047772;28;20353;-81
2021/04/29 07:15:16;;;;;;;5.68;2.70;;;8.80;83.40;;;;;;5047649;28;20033;-83
2021/04/29 07:17:42;;;;;;;8.80;2.75;;;9.70;85.40;;;;;;5047707;28;20040;-82
2021/04/29 07:20:10;;;;;;;9.48;3.25;;;10.80;84.00;;;;;;5030799;28;20033;-80
2021/04/29 07:22:37;;;;;;;19.88;3.28;;;12.00;80.40;;;;;;5047384;28;20025;-82
2021/04/29 07:25:04;;;;;;;14.10;3.30;;;12.70;76.60;;;;;;5047716;28;20049;-81
2021/04/29 07:27:30;;;;;;;8.50;2.80;;;12.80;74.50;;;;;;5047187;28;20159;-83
2021/04/29 07:29:55;;;;;;;6.65;3.22;;;12.90;73.60;;;;;;5048188;28;20108;-81
2021/04/29 07:32:21;;;;;;;12.45;3.13;;;13.10;73.30;;;;;;5048068;28;20327;-82
2021/04/29 07:34:47;;;;;;;12.00;3.70;;;13.40;72.10;;;;;;5046865;28;20029;-82
2021/04/29 07:37:12;;;;;;;10.50;3.63;;;13.60;72.50;;;;;;5030231;28;20068;-80
2021/04/29 07:39:38;;;;;;;11.80;3.50;;;14.60;73.40;;;;;;5047909;28;20403;-84
2021/04/29 07:42:04;;;;;;;6.88;2.88;;;15.70;72.40;;;;;;5029702;28;20085;-83
2021/04/29 07:44:30;;;;;;;7.57;2.85;;;17.10;70.80;;;;;;5030055;28;20029;-82
2021/04/29 07:46:56;;;;;;;7.07;2.80;;;18.70;67.80;;;;;;5047913;28;20080;-81
2021/04/29 07:49:21;;;;;;;11.00;3.13;;;20.00;63.90;;;;;;5029777;28;20360;-81
2021/04/29 07:51:47;;;;;;;11.77;2.85;;;21.00;60.70;;;;;;5046536;28;20083;-82
2021/04/29 07:54:14;;;;;;;17.92;3.33;;;21.90;58.80;;;;;;5046154;28;20041;-83
2021/04/29 07:56:41;;;;;;;6.60;2.53;;;22.50;56.70;;;;;;5046326;28;20041;-80
2021/04/29 07:59:07;;;;;;;10.57;3.42;;;22.80;55.10;;;;;;5046048;28;20407;-83
2021/04/29 08:01:34;;;;;;;6.00;2.67;;;23.30;54.00;;;;;;5047104;28;20025;-82
2021/04/29 08:04:01;;;;;;;8.80;3.10;;;23.90;52.50;;;;;;5047159;28;20025;-81
2021/04/29 08:06:28;;;;;;;9.63;3.22;;;24.50;51.40;;;;;;5030216;28;20097;-81
2021/04/29 08:08:55;;;;;;;11.18;2.88;;;24.90;50.00;;;;;;5047506;28;20025;-82
2021/04/29 08:11:22;;;;;;;20.20;3.70;;;25.10;49.10;;;;;;5048351;28;20530;-80
2021/04/29 08:13:47;;;;;;;8.43;2.75;;;25.10;48.30;;;;;;5031135;28;20044;-82
2021/04/29 08:16:13;;;;;;;7.38;2.63;;;24.80;47.60;;;;;;5048103;28;20029;-80
2021/04/29 08:18:39;;;;;;;9.50;2.83;;;24.30;47.40;;;;;;5048409;28;20025;-82
2021/04/29 08:21:07;;;;;;;7.95;2.85;;;23.90;47.90;;;;;;5047336;28;20471;-81
2021/04/29 08:23:34;;;;;;;22.73;4.32;;;24.00;47.90;;;;;;5049700;28;20021;-82
2021/04/29 08:26:00;;;;;;;15.02;2.83;;;23.90;47.20;;;;;;5048381;28;20499;-81
2021/04/29 08:28:26;;;;;;;9.70;2.58;;;23.50;47.30;;;;;;5048002;28;20128;-83
2021/04/29 08:30:52;;;;;;;9.05;3.45;;;23.60;47.40;;;;;;5031574;28;20029;-82
2021/04/29 08:33:17;;;;;;;8.82;2.90;;;23.80;47.30;;;;;;5048118;28;20391;-83
2021/04/29 08:35:43;;;;;;;11.70;3.22;;;24.30;46.70;;;;;;5029956;28;20028;-84
2021/04/29 08:38:09;;;;;;;8.55;3.13;;;24.50;46.00;;;;;;5045886;28;20039;-82
2021/04/29 08:40:34;;;;;;;8.00;2.70;;;24.60;45.70;;;;;;5029275;28;20037;-82
2021/04/29 08:43:00;;;;;;;6.13;2.80;;;24.70;45.40;;;;;;5029499;28;20057;-82
2021/04/29 08:45:26;;;;;;;7.65;2.53;;;24.20;45.10;;;;;;5012610;28;20577;-82
2021/04/29 08:47:56;;;;;;;8.25;2.75;;;23.50;45.10;;;;;;5028991;28;20087;-82
2021/04/29 08:50:23;;;;;;;5.53;2.75;;;22.70;45.80;;;;;;5029227;28;20079;-80
2021/04/29 08:52:50;;;;;;;9.95;2.50;;;22.30;46.30;;;;;;5029090;28;20044;-83
2021/04/29 08:55:21;;;;;;;8.70;3.08;;;22.20;46.80;;;;;;5046947;28;20476;-82
2021/04/29 08:57:48;;;;;;;5.97;2.50;;;22.30;46.90;;;;;;5045619;28;20063;-81
2021/04/29 09:00:15;;;;;;;8.52;2.80;;;23.00;47.30;;;;;;5045467;28;20105;-80
2021/04/29 09:02:42;;;;;;;10.80;3.80;;;24.10;46.60;;;;;;5045712;28;20442;-81
2021/04/29 09:05:20;;;;;;;9.63;2.50;;;25.40;46.30;;;;;;5045867;28;20033;-81
2021/04/29 09:08:01;;;;;;;7.03;2.75;;;26.80;45.10;;;;;;5046612;28;20098;-82
2021/04/29 09:10:29;;;;;;;5.82;2.42;;;28.00;44.30;;;;;;5046690;28;20099;-83
2021/04/29 09:12:55;;;;;;;7.30;2.70;;;28.70;43.20;;;;;;5044945;28;20070;-83
2021/04/29 09:15:25;;;;;;;7.93;2.80;;;28.60;41.70;;;;;;5046239;28;20028;-81
2021/04/29 09:18:11;;;;;;;12.25;3.42;;;28.30;41.40;;;;;;5047193;28;20021;-83
2021/04/29 09:20:48;;;;;;;11.75;3.10;;;28.70;41.40;;;;;;5046160;28;20029;-81
2021/04/29 09:23:18;;;;;;;13.40;2.63;;;29.00;41.10;;;;;;5045030;28;20075;-82
2021/04/29 09:25:50;;;;;;;;;;;28.10;40.00;;;;;;5029972;28;20035;-67
2021/04/29 09:28:16;;;;;;;4.18;1.80;;;26.90;40.60;;;;;;5046938;28;19909;-84
2021/04/29 09:30:43;;;;;;;6.68;1.83;;;25.60;40.50;;;;;;5028488;28;20032;-83
2021/04/29 09:33:08;;;;;;;5.57;2.22;;;24.30;41.00;;;;;;5049356;28;20036;-82
2021/04/29 09:35:39;;;;;;;9.90;2.67;;;23.20;41.70;;;;;;5016510;28;20033;-82
2021/04/29 09:38:12;;;;;;;7.50;3.25;;;22.20;42.40;;;;;;5049847;28;20064;-82
2021/04/29 09:40:43;;;;;;;6.65;2.00;;;21.20;43.20;;;;;;5049410;28;20042;-82
2021/04/29 09:43:09;;;;;;;12.60;3.63;;;20.50;44.00;;;;;;5034302;28;20036;-83
2021/04/29 09:45:36;;;;;;;10.60;3.00;;;19.90;44.80;;;;;;5050174;28;20029;-83
2021/04/29 09:48:02;;;;;;;4.78;1.98;;;19.50;45.30;;;;;;5049807;28;20052;-81
2021/04/29 09:50:56;;;;;;;4.00;1.75;;;19.00;45.80;;;;;;5050064;28;20490;-84
2021/04/29 09:53:22;;;;;;;9.10;2.25;;;18.50;46.40;;;;;;5050314;28;20059;-82
2021/04/29 09:55:49;;;;;;;5.85;1.80;;;18.10;46.60;;;;;;5034260;28;20037;-83
2021/04/29 09:58:17;;;;;;;4.22;2.00;;;17.80;47.10;;;;;;5051983;28;20353;-82
2021/04/29 10:00:44;;;;;;;8.00;2.67;;;17.50;47.50;;;;;;5051600;28;20032;-84
2021/04/29 10:03:11;;;;;;;5.78;2.00;;;17.10;48.00;;;;;;5050783;28;20020;-84
2021/04/29 10:05:40;;;;;;;8.70;2.13;;;16.70;48.70;;;;;;5032220;28;20381;-84
2021/04/29 10:08:12;;;;;;;5.63;1.48;;;16.10;49.30;;;;;;5048894;28;20077;-83
2021/04/29 10:10:44;;;;;;;3.85;1.27;;;15.50;50.00;;;;;;5050172;28;20029;-83
2021/04/29 10:13:10;;;;;;;1.98;1.30;;;15.00;50.90;;;;;;5049627;28;20064;-83
2021/04/29 10:15:40;;;;;;;1.92;1.00;;;14.30;51.30;;;;;;5048392;28;20487;-82
2021/04/29 10:18:14;;;;;;;4.05;1.10;;;13.70;52.40;;;;;;5049991;28;20094;-83
2021/04/29 10:20:46;;;;;;;1.85;0.85;;;13.10;52.90;;;;;;5032010;28;20043;-82
2021/04/29 10:23:17;;;;;;;6.00;1.55;;;12.60;53.00;;;;;;5049789;28;20021;-82
2021/04/29 10:25:52;;;;;;;3.22;1.70;;;12.30;53.40;;;;;;5033024;28;20480;-82
2021/04/29 10:28:42;;;;;;;3.17;0.95;;;12.10;53.40;;;;;;5048934;28;20032;-82
2021/04/29 10:31:23;;;;;;;2.58;1.20;;;12.00;54.10;;;;;;5048363;28;20033;-83
2021/04/29 10:33:56;;;;;;;2.70;0.93;;;12.00;54.00;;;;;;5048741;28;20486;-83
2021/04/29 10:36:33;;;;;;;3.15;1.48;;;12.00;53.70;;;;;;5049882;28;20430;-81
2021/04/29 10:39:11;;;;;;;1.42;0.80;;;12.00;53.60;;;;;;5048602;28;20040;-83
2021/04/29 10:41:37;;;;;;;3.20;0.90;;;12.20;53.70;;;;;;5048673;28;20338;-83
2021/04/29 10:44:09;;;;;;;2.25;0.93;;;12.40;53.60;;;;;;5031380;28;20057;-82
2021/04/29 10:46:37;;;;;;;1.75;0.70;;;12.50;53.50;;;;;;5049721;28;20446;-81
2021/04/29 10:49:03;;;;;;;4.38;0.68;;;12.70;53.20;;;;;;5033519;28;20875;-83
2021/04/29 10:51:34;;;;;;;1.85;0.80;;;12.90;52.80;;;;;;5048641;28;20112;-83
2021/04/29 10:54:14;;;;;;;3.15;0.90;;;13.20;53.10;;;;;;5048981;28;20025;-83
2021/04/29 10:56:41;;;;;;;2.28;0.73;;;13.70;53.20;;;;;;5048094;28;20028;-83
2021/04/29 10:59:09;;;;;;;1.60;0.60;;;14.50;53.20;;;;;;5047486;28;20041;-83
2021/04/29 11:01:43;;;;;;;1.02;0.60;;;15.40;52.80;;;;;;5047676;28;20043;-85
2021/04/29 11:04:20;;;;;;;1.38;0.60;;;16.10;51.30;;;;;;5047735;28;20017;-83
2021/04/29 11:06:48;;;;;;;2.88;0.50;;;16.50;50.10;;;;;;5047714;28;20017;-82
2021/04/29 11:09:22;;;;;;;3.88;0.80;;;16.80;50.20;;;;;;5047605;28;20127;-83
2021/04/29 11:12:00;;;;;;;3.90;0.80;;;16.90;49.30;;;;;;5047361;28;20024;-83
2021/04/29 11:14:40;;;;;;;1.65;0.68;;;17.30;49.80;;;;;;5047362;28;20027;-84
2021/04/29 11:17:06;;;;;;;3.33;0.80;;;18.00;50.00;;;;;;5047861;28;20391;-83
2021/04/29 11:19:54;;;;;;;3.85;0.70;;;18.60;49.00;;;;;;5048063;28;20032;-82
2021/04/29 11:22:24;;;;;;;2.75;0.90;;;18.80;47.90;;;;;;5048816;28;20104;-83
2021/04/29 11:24:52;;;;;;;4.15;1.65;;;18.70;47.70;;;;;;5047066;28;20017;-85
2021/04/29 11:27:40;;;;;;;2.10;0.68;;;18.70;47.90;;;;;;5048804;28;20055;-84
2021/04/29 11:30:07;;;;;;;3.05;1.13;;;18.90;47.10;;;;;;5048746;28;20032;-82
2021/04/29 11:32:34;;;;;;;2.28;0.68;;;19.00;47.60;;;;;;5046915;28;20025;-85
2021/04/29 11:35:03;;;;;;;0.82;0.60;;;19.40;47.50;;;;;;5048367;28;20036;-83
2021/04/29 11:37:40;;;;;;;2.78;0.65;;;19.60;46.70;;;;;;5048023;28;20025;-83
2021/04/29 11:40:06;;;;;;;10.70;1.88;;;19.60;46.20;;;;;;5047136;28;20059;-85
2021/04/29 11:42:33;;;;;;;7.22;1.60;;;19.50;46.70;;;;;;5047304;28;20483;-83
2021/04/29 11:45:09;;;;;;;3.17;1.77;;;19.20;47.10;;;;;;5048667;28;20521;-83
2021/04/29 11:47:35;;;;;;;5.80;1.80;;;18.90;48.10;;;;;;5048331;28;20059;-84
2021/04/29 11:50:01;;;;;;;5.88;2.35;;;18.70;49.20;;;;;;5048432;28;20021;-83
2021/04/29 11:52:28;;;;;;;2.83;1.40;;;18.70;49.80;;;;;;5030216;28;20516;-83
2021/04/29 11:54:54;;;;;;;2.78;1.10;;;18.60;49.60;;;;;;5045809;28;20063;-84
2021/04/29 11:57:20;;;;;;;2.05;0.88;;;18.50;49.30;;;;;;5048027;28;20072;-84
2021/04/29 11:59:53;;;;;;;5.40;1.25;;;18.60;48.90;;;;;;5046733;28;20029;-83
2021/04/29 12:02:20;;;;;;;1.70;0.77;;;18.50;48.60;;;;;;5047158;28;20033;-83
2021/04/29 12:04:49;;;;;;;3.03;0.70;;;18.60;48.90;;;;;;5046700;28;20027;-83
2021/04/29 12:07:15;;;;;;;1.10;0.60;;;18.90;48.50;;;;;;5048653;28;20075;-85
2021/04/29 12:09:42;;;;;;;2.67;0.90;;;19.40;48.60;;;;;;5049500;28;20044;-83
2021/04/29 12:12:09;;;;;;;2.00;0.75;;;19.70;47.40;;;;;;5047699;28;20033;-82
2021/04/29 12:14:35;;;;;;;3.20;0.98;;;20.10;47.00;;;;;;5045775;28;20124;-83
2021/04/29 12:17:03;;;;;;;2.53;0.90;;;20.70;46.40;;;;;;5045483;28;20436;-86
2021/04/29 12:19:30;;;;;;;2.42;0.77;;;21.10;45.70;;;;;;5046321;28;20052;-84
2021/04/29 12:21:57;;;;;;;3.28;0.85;;;21.40;45.30;;;;;;5046492;28;20048;-83
2021/04/29 12:24:23;;;;;;;3.95;0.82;;;21.70;44.50;;;;;;5047862;28;20439;-84
2021/04/29 12:26:49;;;;;;;2.25;0.85;;;21.90;43.90;;;;;;5047958;28;20090;-83
2021/04/29 12:29:20;;;;;;;4.60;0.80;;;22.10;43.50;;;;;;5045379;28;20028;-84
2021/04/29 12:31:57;;;;;;;3.20;1.63;;;22.20;43.30;;;;;;5045957;28;20096;-84
2021/04/29 12:34:24;;;;;;;3.35;0.95;;;22.20;42.80;;;;;;5045560;28;20025;-84
2021/04/29 12:37:03;;;;;;;2.38;1.23;;;22.30;42.70;;;;;;5045791;28;20574;-84
2021/04/29 12:39:33;;;;;;;2.28;0.93;;;21.90;42.10;;;;;;5049005;28;20048;-84
2021/04/29 12:42:00;;;;;;;;;;;21.50;42.40;;;;;;5047494;28;20033;-84
2021/04/29 12:44:49;;;;;;;3.08;1.17;;;21.50;43.60;;;;;;5045707;28;19905;-83
2021/04/29 12:47:25;;;;;;;3.78;1.05;;;21.90;43.70;;;;;;5046122;28;20081;-81
2021/04/29 12:49:59;;;;;;;3.45;0.93;;;22.20;43.00;;;;;;5046623;28;20037;-83
2021/04/29 12:52:26;;;;;;;3.85;1.10;;;22.20;41.80;;;;;;5046613;28;20025;-83
2021/04/29 12:54:53;;;;;;;3.05;1.08;;;22.30;42.00;;;;;;5046102;28;20043;-83